createdAt,value
2022-11-24T00:00:10.587Z,100476.63
2022-11-24T00:03:16.617Z,100475.84
2022-11-24T00:06:22.752Z,100478.91
2022-11-24T00:09:28.417Z,100484.19
2022-11-24T00:12:34.098Z,100484.97
2022-11-24T00:15:39.270Z,100494.34
2022-11-24T00:18:46.412Z,100487.63
2022-11-24T00:21:51.851Z,100487.84
2022-11-24T00:24:57.162Z,100494.09
2022-11-24T00:28:02.528Z,100499.59
2022-11-24T00:31:21.784Z,100501.00
2022-11-24T00:34:27.057Z,100494.72
2022-11-24T00:37:32.444Z,100510.97
2022-11-24T00:40:38.076Z,100523.56
2022-11-24T00:43:43.403Z,100536.56
2022-11-24T00:46:48.948Z,100548.50
2022-11-24T00:49:54.753Z,100539.34
2022-11-24T00:53:00.096Z,100542.69
2022-11-24T00:56:06.858Z,100537.41
2022-11-24T00:59:12.240Z,100532.53
2022-11-24T01:02:17.456Z,100545.34
2022-11-24T01:05:22.497Z,100541.91
2022-11-24T01:08:27.813Z,100546.41
2022-11-24T01:11:54.607Z,100547.19
2022-11-24T01:15:00.150Z,100548.03
2022-11-24T01:18:06.332Z,100552.50
2022-11-24T01:21:12.277Z,100556.56
2022-11-24T01:24:17.514Z,100557.75
2022-11-24T01:27:23.209Z,100565.69
2022-11-24T01:30:28.319Z,100561.63
2022-11-24T01:33:35.567Z,100574.81
2022-11-24T01:36:40.943Z,100571.34
2022-11-24T01:39:46.585Z,100571.16
2022-11-24T01:42:53.619Z,100567.88
2022-11-24T01:46:09.781Z,100567.41
2022-11-24T01:49:32.034Z,100567.19
2022-11-24T01:52:49.596Z,100580.13
2022-11-24T01:55:55.225Z,100569.63
2022-11-24T01:59:05.436Z,100569.09
2022-11-24T02:02:12.255Z,100572.69
2022-11-24T02:05:33.962Z,100578.81
2022-11-24T02:08:43.085Z,100575.78
2022-11-24T02:11:48.619Z,100586.22
2022-11-24T02:14:55.460Z,100585.91
2022-11-24T02:18:01.074Z,100581.47
2022-11-24T02:21:07.960Z,100589.56
2022-11-24T02:24:41.336Z,100609.00
2022-11-24T02:27:52.217Z,100611.91
2022-11-24T02:31:01.370Z,100616.91
2022-11-24T02:34:06.946Z,100618.94
2022-11-24T02:37:12.262Z,100621.03
2022-11-24T02:40:25.505Z,100612.19
2022-11-24T02:43:35.376Z,100610.31
2022-11-24T02:46:40.712Z,100624.00
2022-11-24T02:49:46.004Z,100629.44
2022-11-24T02:52:51.529Z,100620.63
2022-11-24T02:55:57.165Z,100617.03
2022-11-24T02:59:02.536Z,100622.31
2022-11-24T03:02:07.901Z,100622.41
2022-11-24T03:05:13.848Z,100635.50
2022-11-24T03:08:19.533Z,100638.31
2022-11-24T03:11:24.742Z,100637.13
2022-11-24T03:14:30.104Z,100636.00
2022-11-24T03:17:35.597Z,100643.56
2022-11-24T03:20:41.712Z,100639.78
2022-11-24T03:23:47.503Z,100646.84
2022-11-24T03:26:53.001Z,100652.75
2022-11-24T03:29:58.564Z,100652.03
2022-11-24T03:33:05.337Z,100655.91
2022-11-24T03:36:10.863Z,100670.16
2022-11-24T06:56:41.686Z,100915.47
2022-11-24T06:59:47.349Z,100916.47
2022-11-24T07:02:52.657Z,100909.25
2022-11-24T07:05:59.790Z,100922.13
2022-11-24T07:57:04.370Z,100989.63
2022-11-24T08:00:12.329Z,100993.16
2022-11-24T08:03:17.387Z,101024.38
2022-11-24T08:06:27.212Z,101015.91
2022-11-24T08:09:34.545Z,101018.13
2022-11-24T08:12:41.104Z,101009.94
2022-11-24T08:15:47.304Z,101019.59
2022-11-24T08:18:54.341Z,101015.41
2022-11-24T08:21:59.888Z,100996.22
2022-11-24T08:25:05.636Z,101007.03
2022-11-24T08:28:11.337Z,101006.13
2022-11-24T08:31:19.502Z,101007.22
2022-11-24T08:34:28.318Z,101014.88
2022-11-24T08:37:33.876Z,101008.13
2022-11-24T08:40:39.206Z,101008.03
2022-11-24T08:43:45.024Z,101012.25
2022-11-24T08:46:50.736Z,101023.66
2022-11-24T08:49:56.309Z,101030.19
2022-11-24T08:53:01.558Z,101033.66
2022-11-24T08:56:08.792Z,101045.47
2022-11-24T08:59:15.283Z,101027.97
2022-11-24T09:02:20.747Z,101051.19
2022-11-24T09:05:50.707Z,101058.66
2022-11-24T09:08:56.198Z,101068.06
2022-11-24T09:12:01.545Z,101066.44
2022-11-24T09:15:08.295Z,101066.94
2022-11-24T09:18:14.037Z,101076.13
2022-11-24T09:21:21.521Z,101066.03
2022-11-24T09:24:28.316Z,101060.81
2022-11-24T09:27:34.512Z,101053.78
2022-11-24T09:30:40.276Z,101058.06
2022-11-24T09:33:46.945Z,101050.63
2022-11-24T09:36:52.387Z,101040.09
2022-11-24T09:39:57.834Z,101042.94
2022-11-24T09:43:17.927Z,101044.44
2022-11-24T09:46:59.221Z,101046.50
2022-11-24T09:50:24.476Z,101061.63
2022-11-24T09:53:47.979Z,101052.03
2022-11-24T09:56:54.016Z,101050.00
2022-11-24T10:00:04.999Z,101050.81
2022-11-24T10:03:25.302Z,101057.94
2022-11-24T10:06:40.161Z,101047.31
2022-11-24T10:10:17.420Z,101057.06
2022-11-24T10:13:58.887Z,101056.03
2022-11-24T10:17:39.173Z,101065.63
2022-11-24T10:21:15.268Z,101066.88
2022-11-24T10:24:28.169Z,101063.38
2022-11-24T10:27:46.554Z,101065.59
2022-11-24T10:31:18.028Z,101062.91
2022-11-24T10:34:41.837Z,101065.50
2022-11-24T10:38:21.746Z,101064.63
2022-11-24T10:42:01.081Z,101074.47
2022-11-24T10:45:25.265Z,101078.06
2022-11-24T10:48:40.187Z,101078.47
2022-11-24T10:51:57.830Z,101068.97
2022-11-24T10:55:05.637Z,101074.09
2022-11-24T10:58:16.766Z,101073.72
2022-11-24T11:01:32.450Z,101073.25
2022-11-24T11:04:38.027Z,101075.84
2022-11-24T11:07:43.673Z,101070.16
2022-11-24T11:10:51.752Z,101067.59
2022-11-24T11:14:04.599Z,101072.66
2022-11-24T11:17:36.945Z,101064.84
2022-11-24T11:20:50.981Z,101069.41
2022-11-24T11:23:58.030Z,101073.97
2022-11-24T11:27:16.769Z,101078.47
2022-11-24T11:34:10.692Z,101068.75
2022-11-24T11:37:24.677Z,101058.59
2022-11-24T11:40:31.879Z,101069.75
2022-11-24T11:43:41.341Z,101067.22
2022-11-24T11:46:47.818Z,101069.00
2022-11-24T11:49:53.760Z,101072.50
2022-11-24T11:53:28.183Z,101067.25
2022-11-24T11:57:39.473Z,101050.03
2022-11-24T12:01:15.565Z,101043.97
2022-11-24T12:04:23.675Z,101043.38
2022-11-24T12:07:53.134Z,101055.00
2022-11-24T12:11:35.963Z,101059.75
2022-11-24T12:15:12.960Z,101059.81
2022-11-24T12:22:16.900Z,101080.03
2022-11-24T12:25:35.224Z,101080.78
2022-11-24T12:29:03.955Z,101084.03
2022-11-24T12:32:41.392Z,101082.75
2022-11-24T12:35:53.189Z,101081.06
2022-11-24T12:39:15.315Z,101085.94
2022-11-24T12:42:48.054Z,101082.16
2022-11-24T12:46:11.152Z,101076.75
2022-11-24T12:49:54.510Z,101074.16
2022-11-24T12:53:13.667Z,101074.53
2022-11-24T12:56:28.539Z,101074.00
2022-11-24T12:59:57.121Z,101074.75
2022-11-24T13:03:46.223Z,101071.03
2022-11-24T13:07:12.757Z,101066.50
2022-11-24T13:10:55.969Z,101065.16
2022-11-24T13:14:19.503Z,101071.53
2022-11-24T13:18:06.846Z,101076.78
2022-11-24T13:21:48.418Z,101083.41
2022-11-24T13:25:33.979Z,101087.84
2022-11-24T13:29:18.325Z,101073.91
2022-11-24T13:33:04.933Z,101079.25
2022-11-24T13:36:25.457Z,101073.00
2022-11-24T13:40:09.707Z,101073.84
2022-11-24T13:43:16.396Z,101084.50
2022-11-24T13:47:05.649Z,101081.00
2022-11-24T13:50:24.686Z,101082.41
2022-11-24T13:53:48.549Z,101080.53
2022-11-24T13:57:35.700Z,101078.88
2022-11-24T14:01:18.327Z,101082.38
2022-11-24T14:04:33.275Z,101089.25
2022-11-24T14:07:59.469Z,101092.59
2022-11-24T14:11:15.247Z,101092.00
2022-11-24T14:14:40.348Z,101087.13
2022-11-24T14:17:46.422Z,101082.22
2022-11-24T14:21:10.788Z,101071.88
2022-11-24T14:24:33.439Z,101078.97
2022-11-24T14:27:59.270Z,101078.75
2022-11-24T14:31:09.897Z,101062.09
2022-11-24T14:34:35.979Z,101067.56
2022-11-24T14:37:41.984Z,101063.56
2022-11-24T14:41:09.607Z,101064.84
2022-11-24T14:44:22.592Z,101076.09
2022-11-24T14:47:50.709Z,101094.19
2022-11-24T14:51:08.353Z,101100.25
2022-11-24T14:54:35.454Z,101102.75
2022-11-24T14:57:42.297Z,101100.69
2022-11-24T15:01:25.885Z,101090.47
2022-11-24T15:05:01.581Z,101101.38
2022-11-24T15:08:21.392Z,101095.75
2022-11-24T15:11:31.582Z,101106.97
2022-11-24T15:15:07.505Z,101108.84
2022-11-24T15:18:49.587Z,101115.59
2022-11-24T15:22:13.584Z,101107.50
2022-11-24T15:25:31.867Z,101112.34
2022-11-24T15:28:55.613Z,101119.31
2022-11-24T15:32:00.876Z,101124.47
2022-11-24T15:35:28.986Z,101117.41
2022-11-24T15:38:34.468Z,101124.81
2022-11-24T15:41:59.659Z,101127.50
2022-11-24T15:45:05.931Z,101122.56
2022-11-24T15:48:29.805Z,101116.03
2022-11-24T15:51:36.538Z,101127.28
2022-11-24T15:54:42.120Z,101118.97
2022-11-24T15:57:49.317Z,101126.09
2022-11-24T16:00:54.930Z,101114.47
2022-11-24T16:04:01.917Z,101131.47
2022-11-24T16:07:12.150Z,101135.03
2022-11-24T16:10:26.773Z,101132.19
2022-11-24T16:13:32.543Z,101136.28
2022-11-24T16:16:37.957Z,101138.69
2022-11-24T16:19:44.249Z,101147.72
2022-11-24T16:22:49.884Z,101149.56
2022-11-24T16:25:55.011Z,101148.13
2022-11-24T16:29:00.475Z,101145.72
2022-11-24T16:32:06.573Z,101150.00
2022-11-24T16:35:25.950Z,101147.34
2022-11-24T16:38:44.921Z,101151.22
2022-11-24T16:42:01.970Z,101147.97
2022-11-24T16:45:13.585Z,101150.63
2022-11-24T16:48:18.800Z,101151.03
2022-11-24T16:51:28.785Z,101158.22
2022-11-24T16:54:39.558Z,101155.56
2022-11-24T16:57:45.914Z,101168.84
2022-11-24T17:00:52.213Z,101169.63
2022-11-24T17:03:58.216Z,101184.75
2022-11-24T17:07:03.865Z,101197.00
2022-11-24T17:10:09.804Z,101212.16
2022-11-24T17:13:15.811Z,101211.72
2022-11-24T17:16:23.737Z,101206.81
2022-11-24T17:19:32.024Z,101215.56
2022-11-24T17:22:38.246Z,101217.84
2022-11-24T17:25:44.069Z,101216.78
2022-11-24T17:28:50.586Z,101206.19
2022-11-24T17:31:57.027Z,101212.50
2022-11-24T17:35:03.074Z,101209.84
2022-11-24T17:38:09.314Z,101220.03
2022-11-24T17:41:16.215Z,101216.19
2022-11-24T17:44:22.303Z,101213.72
2022-11-24T17:47:30.607Z,101225.34
2022-11-24T17:50:37.311Z,101220.03
2022-11-24T17:53:46.455Z,101225.94
2022-11-24T17:56:52.663Z,101232.69
2022-11-24T17:59:59.185Z,101245.72
2022-11-24T18:03:05.856Z,101245.28
2022-11-24T18:06:15.209Z,101249.56
2022-11-24T18:09:22.451Z,101249.53
2022-11-24T18:12:28.644Z,101245.22
2022-11-24T18:15:35.472Z,101254.56
2022-11-24T18:18:45.957Z,101262.88
2022-11-24T18:21:55.167Z,101265.69
2022-11-24T18:25:01.646Z,101272.50
2022-11-24T18:28:08.296Z,101270.44
2022-11-24T18:31:18.798Z,101265.31
2022-11-24T18:34:25.477Z,101269.34
2022-11-24T18:37:33.679Z,101272.09
2022-11-24T18:40:41.001Z,101281.13
2022-11-24T18:43:47.388Z,101281.13
2022-11-24T18:46:54.133Z,101285.78
2022-11-24T18:50:00.720Z,101288.06
2022-11-24T18:53:06.966Z,101305.69
2022-11-24T18:56:17.442Z,101301.22
2022-11-24T18:59:23.029Z,101305.25
2022-11-24T19:02:29.272Z,101304.38
2022-11-24T19:05:35.206Z,101311.19
2022-11-24T19:08:41.055Z,101317.25
2022-11-24T19:11:47.552Z,101314.72
2022-11-24T19:14:54.936Z,101315.31
2022-11-24T19:18:00.607Z,101317.31
2022-11-24T19:21:06.976Z,101309.13
2022-11-24T19:24:13.473Z,101304.44
2022-11-24T19:27:21.422Z,101298.34
2022-11-24T19:30:27.142Z,101300.78
2022-11-24T19:33:33.683Z,101298.59
2022-11-24T19:36:40.847Z,101292.59
2022-11-24T19:39:47.020Z,101301.88
2022-11-24T19:42:52.590Z,101306.78
2022-11-24T19:46:06.608Z,101303.13
2022-11-24T19:49:12.054Z,101303.28
2022-11-24T19:52:17.551Z,101306.41
2022-11-24T19:55:22.984Z,101319.25
2022-11-24T19:58:30.853Z,101327.41
2022-11-24T20:01:39.878Z,101339.47
2022-11-24T20:04:45.965Z,101343.13
2022-11-24T20:07:51.112Z,101329.84
2022-11-24T20:11:05.804Z,101326.94
2022-11-24T20:14:16.570Z,101337.09
2022-11-24T20:17:23.302Z,101352.06
2022-11-24T20:20:28.682Z,101346.75
2022-11-24T20:23:34.440Z,101348.66
2022-11-24T20:26:44.038Z,101346.44
2022-11-24T20:29:49.327Z,101351.81
2022-11-24T20:32:54.919Z,101349.94
2022-11-24T20:36:18.967Z,101342.84
2022-11-24T20:39:27.537Z,101337.06
2022-11-24T20:42:33.246Z,101332.88
2022-11-24T20:45:38.936Z,101329.38
2022-11-24T20:48:45.344Z,101342.44
2022-11-24T20:51:54.660Z,101350.63
2022-11-24T20:55:04.242Z,101360.66
2022-11-24T20:58:09.704Z,101360.53
2022-11-24T21:01:21.328Z,101367.50
2022-11-24T21:04:27.784Z,101374.00
2022-11-24T21:07:33.389Z,101379.41
2022-11-24T21:10:39.010Z,101385.22
2022-11-24T21:13:47.980Z,101379.22
2022-11-24T21:16:54.098Z,101381.53
2022-11-24T21:20:01.295Z,101387.06
2022-11-24T21:23:07.604Z,101372.03
2022-11-24T21:26:16.949Z,101385.63
2022-11-24T21:29:25.769Z,101393.88
2022-11-24T21:32:32.544Z,101391.03
2022-11-24T21:35:38.354Z,101389.59
2022-11-24T21:38:44.751Z,101393.31
2022-11-24T21:41:50.044Z,101401.44
2022-11-24T21:44:55.908Z,101393.66
2022-11-24T21:48:01.665Z,101385.41
2022-11-24T21:51:10.851Z,101394.88
2022-11-24T21:54:16.029Z,101397.59
2022-11-24T21:57:23.511Z,101390.78
2022-11-24T22:00:29.446Z,101383.75
2022-11-24T22:03:35.608Z,101390.94
2022-11-24T22:06:40.938Z,101385.00
2022-11-24T22:09:47.062Z,101376.16
2022-11-24T22:12:52.501Z,101372.16
2022-11-24T22:16:04.374Z,101380.91
2022-11-24T22:19:11.901Z,101387.47
2022-11-24T22:22:17.644Z,101394.13
2022-11-24T22:25:23.426Z,101398.06
2022-11-24T22:28:32.642Z,101408.06
2022-11-24T22:31:38.202Z,101409.97
2022-11-24T22:34:44.005Z,101414.09
2022-11-24T22:37:49.763Z,101421.69
2022-11-24T22:41:00.867Z,101431.88
2022-11-24T22:44:07.239Z,101426.53
2022-11-24T22:47:12.697Z,101417.03
2022-11-24T22:50:18.331Z,101410.38
2022-11-24T22:53:23.802Z,101417.47
2022-11-24T22:56:32.609Z,101417.22
2022-11-24T22:59:38.324Z,101419.31
2022-11-24T23:02:43.926Z,101417.03
2022-11-24T23:05:49.696Z,101412.75
2022-11-24T23:08:57.812Z,101413.59
2022-11-24T23:12:03.162Z,101400.63
2022-11-24T23:15:09.391Z,101395.34
2022-11-24T23:18:15.321Z,101403.25
2022-11-24T23:21:22.482Z,101405.53
2022-11-24T23:24:28.387Z,101409.38
2022-11-24T23:27:33.995Z,101409.84
2022-11-24T23:30:39.513Z,101401.81
2022-11-24T23:33:46.375Z,101394.41
2022-11-24T23:36:51.911Z,101392.69
2022-11-24T23:39:57.421Z,101380.44
2022-11-24T23:43:02.763Z,101385.13
2022-11-24T23:46:17.168Z,101380.72
2022-11-24T23:49:22.749Z,101384.28
2022-11-24T23:52:30.723Z,101390.59
2022-11-24T23:55:36.448Z,101379.72
2022-11-24T23:58:42.775Z,101384.84
